Time;durP1;ratioP1;P1;durP2;ratioP2;P2;SDS_P1;SDS_P2;PMS_P1;PMS_P2;Temp;Humidity;BMP_temperature;BMP_pressure;BME280_temperature;BME280_humidity;BME280_pressure;Samples;Min_cycle;Max_cycle;Signal;HPM_P1;HPM_P2
2021/11/27 00:01:54;;;;;;;0.25;0.20;;;;;;;;;;4180252;28;20102;-40
2021/11/27 00:03:55;;;;;;;0.32;0.20;;;;;;;;;;4198025;28;20056;-36
2021/11/27 00:05:57;;;;;;;0.20;0.20;;;;;;;;;;4198217;28;20072;-38
2021/11/27 00:07:59;;;;;;;0.25;0.20;;;;;;;;;;4197358;28;20094;-38
2021/11/27 00:10:00;;;;;;;0.28;0.20;;;;;;;;;;4180208;28;20057;-38
2021/11/27 00:12:01;;;;;;;0.40;0.22;;;;;;;;;;4197857;28;20048;-39
2021/11/27 00:14:03;;;;;;;0.20;0.20;;;;;;;;;;4197660;28;20500;-38
2021/11/27 00:16:05;;;;;;;0.30;0.20;;;;;;;;;;4197663;28;20063;-40
2021/11/27 00:18:07;;;;;;;0.22;0.20;;;;;;;;;;4197905;28;20105;-38
2021/11/27 00:20:12;;;;;;;0.20;0.20;;;;;;;;;;4180038;28;20128;-39
2021/11/27 00:22:13;;;;;;;0.10;0.10;;;;;;;;;;4197563;28;20451;-39
2021/11/27 00:24:14;;;;;;;0.20;0.20;;;;;;;;;;4196917;28;20052;-39
2021/11/27 00:26:17;;;;;;;0.40;0.17;;;;;;;;;;4197895;28;20118;-40
2021/11/27 00:28:18;;;;;;;0.40;0.20;;;;;;;;;;4197613;28;20060;-41
2021/11/27 00:30:22;;;;;;;0.20;0.20;;;;;;;;;;4197611;28;20416;-40
2021/11/27 00:32:23;;;;;;;0.57;0.30;;;;;;;;;;4196268;28;20053;-37
2021/11/27 00:34:25;;;;;;;0.40;0.20;;;;;;;;;;4179738;28;20056;-38
2021/11/27 00:36:26;;;;;;;0.15;0.10;;;;;;;;;;4197559;28;20056;-37
2021/11/27 00:38:27;;;;;;;0.47;0.20;;;;;;;;;;4196999;28;20110;-36
2021/11/27 00:40:29;;;;;;;0.30;0.20;;;;;;;;;;4197652;28;20086;-39
2021/11/27 00:42:30;;;;;;;0.20;0.20;;;;;;;;;;4197451;28;20052;-39
2021/11/27 00:44:32;;;;;;;0.30;0.10;;;;;;;;;;4197452;28;20057;-38
2021/11/27 00:46:33;;;;;;;0.40;0.30;;;;;;;;;;4197366;28;20060;-38
2021/11/27 00:48:34;;;;;;;0.20;0.20;;;;;;;;;;4197304;28;20060;-41
2021/11/27 00:50:47;;;;;;;0.85;0.32;;;;;;;;;;4179941;28;20052;-40
2021/11/27 00:52:49;;;;;;;0.35;0.30;;;;;;;;;;4196969;28;20048;-38
2021/11/27 00:54:50;;;;;;;0.10;0.10;;;;;;;;;;4179508;28;20053;-41
2021/11/27 00:56:52;;;;;;;0.38;0.13;;;;;;;;;;4196083;28;20385;-37
2021/11/27 00:58:53;;;;;;;0.40;0.20;;;;;;;;;;4197136;28;20056;-41
2021/11/27 01:00:59;;;;;;;0.13;0.10;;;;;;;;;;4197237;28;20618;-39
2021/11/27 01:03:03;;;;;;;0.20;0.20;;;;;;;;;;4179247;28;20425;-40
2021/11/27 01:05:06;;;;;;;0.13;0.13;;;;;;;;;;4179575;28;20107;-38
2021/11/27 01:07:09;;;;;;;0.20;0.20;;;;;;;;;;4179284;28;20053;-40
2021/11/27 01:09:14;;;;;;;0.17;0.10;;;;;;;;;;4196622;28;20048;-38
2021/11/27 01:11:28;;;;;;;0.43;0.20;;;;;;;;;;4179364;28;20061;-39
2021/11/27 01:13:29;;;;;;;0.22;0.20;;;;;;;;;;4179235;28;20513;-39
2021/11/27 01:15:32;;;;;;;0.30;0.30;;;;;;;;;;4197299;28;20053;-40
2021/11/27 01:17:34;;;;;;;0.40;0.22;;;;;;;;;;4197044;28;20086;-40
2021/11/27 01:19:37;;;;;;;0.22;0.20;;;;;;;;;;4197137;28;20067;-39
2021/11/27 01:21:45;;;;;;;0.30;0.20;;;;;;;;;;4196690;28;20056;-37
2021/11/27 01:23:47;;;;;;;0.30;0.30;;;;;;;;;;4196497;28;20052;-39
2021/11/27 01:25:50;;;;;;;0.40;0.28;;;;;;;;;;4196940;28;20105;-41
2021/11/27 01:27:51;;;;;;;0.20;0.10;;;;;;;;;;4178981;28;20110;-39
2021/11/27 01:29:53;;;;;;;0.30;0.17;;;;;;;;;;4196034;28;20056;-39
2021/11/27 01:31:54;;;;;;;0.30;0.30;;;;;;;;;;4197093;28;20044;-35
2021/11/27 01:33:56;;;;;;;0.50;0.30;;;;;;;;;;4195632;28;20103;-37
2021/11/27 01:35:58;;;;;;;0.20;0.20;;;;;;;;;;4196994;28;20060;-41
2021/11/27 01:37:59;;;;;;;0.10;0.10;;;;;;;;;;4178636;28;20485;-38
2021/11/27 01:40:03;;;;;;;0.45;0.20;;;;;;;;;;4195545;28;20420;-39
2021/11/27 01:42:05;;;;;;;0.20;0.20;;;;;;;;;;4196922;28;20048;-35
2021/11/27 01:44:06;;;;;;;0.30;0.17;;;;;;;;;;4195543;28;20052;-41
2021/11/27 01:46:08;;;;;;;0.57;0.28;;;;;;;;;;4179030;28;20103;-41
2021/11/27 01:48:13;;;;;;;0.55;0.20;;;;;;;;;;4179001;28;20515;-40
2021/11/27 01:50:15;;;;;;;0.20;0.10;;;;;;;;;;4179184;28;20060;-41
2021/11/27 01:52:16;;;;;;;0.20;0.20;;;;;;;;;;4179159;28;20057;-39
2021/11/27 01:54:18;;;;;;;0.28;0.20;;;;;;;;;;4195522;28;20110;-40
2021/11/27 01:56:29;;;;;;;0.20;0.10;;;;;;;;;;4178940;28;20130;-39
2021/11/27 01:58:32;;;;;;;0.20;0.10;;;;;;;;;;4195360;28;20060;-39
2021/11/27 02:00:36;;;;;;;0.10;0.10;;;;;;;;;;4179837;28;20064;-40
2021/11/27 02:02:37;;;;;;;0.30;0.20;;;;;;;;;;4199734;28;20111;-40
2021/11/27 02:04:41;;;;;;;0.30;0.20;;;;;;;;;;4181920;28;20057;-41
2021/11/27 02:06:44;;;;;;;0.75;0.32;;;;;;;;;;4182031;28;20057;-41
2021/11/27 02:08:49;;;;;;;0.20;0.20;;;;;;;;;;4181533;28;20061;-40
2021/11/27 02:10:50;;;;;;;0.40;0.20;;;;;;;;;;4182104;28;20057;-41
2021/11/27 02:12:51;;;;;;;0.10;0.10;;;;;;;;;;4168038;28;20065;-39
2021/11/27 02:14:53;;;;;;;0.73;0.15;;;;;;;;;;4165613;28;20060;-41
2021/11/27 02:16:57;;;;;;;0.10;0.10;;;;;;;;;;4165489;28;20068;-40
2021/11/27 02:19:02;;;;;;;0.40;0.20;;;;;;;;;;4148891;28;20212;-37
2021/11/27 02:21:08;;;;;;;0.25;0.20;;;;;;;;;;4165436;28;20049;-40
2021/11/27 02:23:09;;;;;;;0.38;0.20;;;;;;;;;;4164625;28;20101;-39
2021/11/27 02:25:16;;;;;;;0.10;0.10;;;;;;;;;;4166866;28;20098;-42
2021/11/27 02:27:18;;;;;;;0.60;0.20;;;;;;;;;;4149167;28;20101;-41
2021/11/27 02:29:24;;;;;;;0.20;0.20;;;;;;;;;;4165148;28;20414;-38
2021/11/27 02:31:27;;;;;;;0.15;0.13;;;;;;;;;;4166787;28;20133;-39
2021/11/27 02:33:28;;;;;;;0.10;0.10;;;;;;;;;;4148543;28;20054;-39
2021/11/27 02:35:29;;;;;;;0.30;0.20;;;;;;;;;;4166482;28;20095;-37
2021/11/27 02:37:31;;;;;;;0.20;0.20;;;;;;;;;;4148633;28;20535;-41
2021/11/27 02:39:33;;;;;;;0.10;0.10;;;;;;;;;;4148171;28;20053;-40
2021/11/27 02:41:35;;;;;;;0.13;0.10;;;;;;;;;;4166251;28;20057;-39
2021/11/27 02:43:37;;;;;;;0.30;0.10;;;;;;;;;;4148713;28;20058;-41
2021/11/27 02:45:38;;;;;;;0.20;0.20;;;;;;;;;;4166200;28;20061;-40
2021/11/27 02:47:40;;;;;;;0.20;0.20;;;;;;;;;;4148583;28;20058;-39
2021/11/27 02:49:41;;;;;;;0.20;0.20;;;;;;;;;;4166291;28;20053;-37
2021/11/27 02:51:43;;;;;;;0.10;0.10;;;;;;;;;;4148623;28;20061;-40
2021/11/27 02:53:44;;;;;;;0.10;0.10;;;;;;;;;;4165686;28;20057;-42
2021/11/27 02:55:46;;;;;;;0.15;0.10;;;;;;;;;;4179746;28;20060;-39
2021/11/27 02:57:48;;;;;;;1.10;0.28;;;;;;;;;;4199187;28;20105;-36
2021/11/27 02:59:49;;;;;;;0.30;0.20;;;;;;;;;;4197947;28;20484;-39
2021/11/27 03:01:53;;;;;;;0.43;0.20;;;;;;;;;;4181118;28;20456;-40
2021/11/27 03:03:58;;;;;;;0.45;0.28;;;;;;;;;;4181237;28;20057;-41
2021/11/27 03:05:59;;;;;;;0.25;0.20;;;;;;;;;;4181247;28;20057;-41
2021/11/27 03:08:00;;;;;;;0.10;0.10;;;;;;;;;;4180791;28;20126;-40
2021/11/27 03:10:03;;;;;;;0.40;0.20;;;;;;;;;;4198780;28;20056;-41
2021/11/27 03:12:05;;;;;;;0.38;0.10;;;;;;;;;;4198822;28;20049;-40
2021/11/27 03:14:06;;;;;;;0.38;0.10;;;;;;;;;;4180967;28;20475;-40
2021/11/27 03:16:07;;;;;;;0.28;0.10;;;;;;;;;;4199029;28;20113;-37
2021/11/27 03:18:11;;;;;;;0.20;0.20;;;;;;;;;;4198579;28;20064;-38
2021/11/27 03:20:15;;;;;;;0.30;0.15;;;;;;;;;;4198980;28;20056;-39
2021/11/27 03:22:19;;;;;;;0.20;0.13;;;;;;;;;;4198559;28;20132;-40
2021/11/27 03:24:21;;;;;;;0.20;0.20;;;;;;;;;;4180453;28;20057;-38
2021/11/27 03:26:22;;;;;;;0.10;0.10;;;;;;;;;;4180885;28;20422;-40
2021/11/27 03:28:23;;;;;;;0.30;0.20;;;;;;;;;;4180921;28;20079;-40
2021/11/27 03:30:26;;;;;;;0.40;0.20;;;;;;;;;;4181112;28;20057;-40
2021/11/27 03:32:31;;;;;;;0.30;0.10;;;;;;;;;;4180660;28;20052;-40
2021/11/27 03:34:42;;;;;;;0.10;0.10;;;;;;;;;;4197668;28;20056;-40
2021/11/27 03:36:45;;;;;;;0.20;0.20;;;;;;;;;;4197399;28;20049;-38
2021/11/27 03:38:47;;;;;;;0.10;0.10;;;;;;;;;;4180149;28;20061;-39
2021/11/27 03:40:48;;;;;;;0.17;0.17;;;;;;;;;;4181005;28;20052;-38
2021/11/27 03:42:49;;;;;;;0.20;0.20;;;;;;;;;;4180511;28;20509;-40
2021/11/27 03:44:50;;;;;;;0.20;0.20;;;;;;;;;;4180572;28;20087;-37
2021/11/27 03:46:52;;;;;;;0.20;0.20;;;;;;;;;;4180701;28;20110;-38
2021/11/27 03:48:54;;;;;;;0.35;0.22;;;;;;;;;;4198388;28;20048;-40
2021/11/27 03:51:12;;;;;;;0.20;0.20;;;;;;;;;;4180581;28;20057;-39
2021/11/27 03:53:19;;;;;;;0.10;0.10;;;;;;;;;;4197581;28;20546;-41
2021/11/27 03:55:20;;;;;;;0.38;0.20;;;;;;;;;;4180668;28;20062;-38
2021/11/27 03:57:21;;;;;;;0.10;0.10;;;;;;;;;;4197999;28;20056;-39
2021/11/27 03:59:23;;;;;;;0.13;0.10;;;;;;;;;;4196955;28;20099;-41
2021/11/27 04:01:25;;;;;;;0.40;0.20;;;;;;;;;;4180482;28;20057;-41
2021/11/27 04:03:27;;;;;;;0.20;0.10;;;;;;;;;;4180122;28;20049;-41
2021/11/27 04:05:29;;;;;;;0.20;0.10;;;;;;;;;;4173405;28;20097;-39
2021/11/27 04:07:30;;;;;;;0.13;0.10;;;;;;;;;;4163735;28;20057;-40
2021/11/27 04:09:32;;;;;;;0.20;0.20;;;;;;;;;;4163195;28;20328;-40
2021/11/27 04:11:35;;;;;;;0.30;0.20;;;;;;;;;;4147391;28;20058;-41
2021/11/27 04:13:40;;;;;;;0.30;0.20;;;;;;;;;;4163323;28;20053;-36
2021/11/27 04:15:43;;;;;;;0.20;0.20;;;;;;;;;;4147549;28;20053;-40
2021/11/27 04:17:44;;;;;;;0.45;0.20;;;;;;;;;;4163568;28;20053;-41
2021/11/27 04:19:47;;;;;;;0.10;0.10;;;;;;;;;;4147638;28;20073;-40
2021/11/27 04:21:49;;;;;;;0.10;0.10;;;;;;;;;;4164538;28;20184;-41
2021/11/27 04:23:51;;;;;;;0.15;0.10;;;;;;;;;;4146069;28;20057;-40
2021/11/27 04:25:54;;;;;;;0.43;0.25;;;;;;;;;;4163321;28;20057;-39
2021/11/27 04:27:56;;;;;;;0.30;0.20;;;;;;;;;;4163550;28;20054;-40
2021/11/27 04:29:57;;;;;;;0.20;0.17;;;;;;;;;;4164612;28;20053;-44
2021/11/27 04:31:58;;;;;;;0.10;0.10;;;;;;;;;;4163292;28;20057;-41
2021/11/27 04:33:59;;;;;;;0.28;0.20;;;;;;;;;;4163303;28;20489;-37
2021/11/27 04:36:02;;;;;;;0.13;0.10;;;;;;;;;;4163357;28;20053;-41
2021/11/27 04:38:10;;;;;;;0.10;0.10;;;;;;;;;;4146801;28;20168;-40
2021/11/27 04:40:13;;;;;;;0.13;0.10;;;;;;;;;;4164874;28;20057;-41
2021/11/27 04:42:18;;;;;;;0.17;0.10;;;;;;;;;;4163411;28;20057;-39
2021/11/27 04:44:19;;;;;;;0.10;0.10;;;;;;;;;;4164187;28;20110;-39
2021/11/27 04:46:20;;;;;;;0.22;0.10;;;;;;;;;;4146803;28;20058;-40
2021/11/27 04:48:22;;;;;;;0.30;0.10;;;;;;;;;;4163243;28;20057;-39
2021/11/27 04:50:24;;;;;;;0.10;0.10;;;;;;;;;;4163272;28;20535;-40
2021/11/27 04:52:26;;;;;;;0.10;0.10;;;;;;;;;;4163067;28;20545;-41
2021/11/27 04:54:28;;;;;;;0.15;0.10;;;;;;;;;;4130369;28;20058;-38
2021/11/27 04:56:29;;;;;;;0.22;0.13;;;;;;;;;;4163094;28;20053;-41
2021/11/27 04:58:31;;;;;;;0.30;0.10;;;;;;;;;;4163130;28;20065;-39
2021/11/27 05:00:39;;;;;;;0.75;0.30;;;;;;;;;;4163084;28;20064;-41
2021/11/27 05:02:42;;;;;;;0.17;0.10;;;;;;;;;;4163164;28;20050;-39
2021/11/27 05:04:43;;;;;;;0.20;0.20;;;;;;;;;;4164085;28;20378;-39
2021/11/27 05:06:45;;;;;;;0.20;0.10;;;;;;;;;;4163021;28;20049;-39
2021/11/27 05:08:47;;;;;;;0.10;0.10;;;;;;;;;;4146361;28;20107;-41
2021/11/27 05:10:49;;;;;;;0.30;0.20;;;;;;;;;;4162826;28;20053;-41
2021/11/27 05:12:50;;;;;;;0.10;0.10;;;;;;;;;;4163810;28;20057;-39
2021/11/27 05:14:52;;;;;;;0.20;0.10;;;;;;;;;;4163158;28;20080;-39
2021/11/27 05:16:54;;;;;;;0.13;0.10;;;;;;;;;;4162988;28;20504;-40
2021/11/27 05:18:55;;;;;;;0.10;0.10;;;;;;;;;;4146529;28;20057;-41
2021/11/27 05:21:26;;;;;;;0.22;0.20;;;;;;;;;;4162745;28;20119;-40
2021/11/27 05:23:27;;;;;;;0.13;0.13;;;;;;;;;;4129708;28;20411;-38
2021/11/27 05:25:29;;;;;;;0.10;0.10;;;;;;;;;;4163105;28;20053;-40
2021/11/27 05:27:48;;;;;;;0.25;0.20;;;;;;;;;;4163618;28;20386;-39
2021/11/27 05:30:11;;;;;;;0.10;0.10;;;;;;;;;;4130512;28;20104;-39
2021/11/27 05:34:39;;;;;;;0.20;0.20;;;;;;;;;;4164010;28;20053;-40
2021/11/27 05:36:41;;;;;;;0.10;0.10;;;;;;;;;;4167355;28;20501;-41
2021/11/27 05:38:47;;;;;;;0.22;0.10;;;;;;;;;;4166663;28;20401;-41
2021/11/27 05:40:49;;;;;;;0.10;0.10;;;;;;;;;;4167292;28;20079;-39
2021/11/27 05:42:50;;;;;;;0.10;0.10;;;;;;;;;;4166117;28;20477;-39
2021/11/27 05:44:53;;;;;;;0.10;0.10;;;;;;;;;;4149651;28;20054;-39
2021/11/27 05:46:55;;;;;;;0.30;0.10;;;;;;;;;;4166197;28;20068;-40
2021/11/27 05:48:56;;;;;;;0.15;0.10;;;;;;;;;;4166105;28;20096;-40
2021/11/27 05:51:16;;;;;;;0.13;0.13;;;;;;;;;;4165958;28;20053;-39
2021/11/27 05:53:18;;;;;;;0.15;0.13;;;;;;;;;;4166486;28;20506;-39
2021/11/27 05:55:21;;;;;;;0.43;0.20;;;;;;;;;;4167015;28;20131;-40
2021/11/27 05:57:22;;;;;;;0.10;0.10;;;;;;;;;;4166885;28;20069;-40
2021/11/27 05:59:24;;;;;;;0.10;0.10;;;;;;;;;;4165881;28;20514;-39
2021/11/27 06:01:25;;;;;;;0.20;0.10;;;;;;;;;;4166929;28;20053;-38
2021/11/27 06:03:26;;;;;;;0.20;0.20;;;;;;;;;;4166683;28;20053;-38
2021/11/27 06:05:29;;;;;;;0.25;0.15;;;;;;;;;;4166845;28;20454;-41
2021/11/27 06:07:30;;;;;;;0.10;0.10;;;;;;;;;;4167075;28;20119;-38
2021/11/27 06:09:32;;;;;;;0.10;0.10;;;;;;;;;;4166621;28;20053;-39
2021/11/27 06:11:33;;;;;;;0.20;0.20;;;;;;;;;;4166228;28;20058;-40
2021/11/27 06:13:34;;;;;;;0.28;0.10;;;;;;;;;;4166588;28;20053;-40
2021/11/27 06:15:35;;;;;;;0.10;0.10;;;;;;;;;;4166768;28;20057;-37
2021/11/27 06:17:36;;;;;;;0.20;0.10;;;;;;;;;;4166592;28;20072;-40
2021/11/27 06:19:37;;;;;;;0.20;0.20;;;;;;;;;;4166629;28;20520;-40
2021/11/27 06:21:39;;;;;;;0.10;0.10;;;;;;;;;;4166486;28;20057;-39
2021/11/27 06:23:40;;;;;;;0.10;0.10;;;;;;;;;;4166056;28;20049;-40
2021/11/27 06:25:41;;;;;;;0.13;0.10;;;;;;;;;;4166466;28;20099;-40
2021/11/27 06:27:42;;;;;;;0.20;0.10;;;;;;;;;;4165947;28;20111;-39
2021/11/27 06:29:44;;;;;;;0.10;0.10;;;;;;;;;;4165380;28;20091;-40
2021/11/27 06:31:45;;;;;;;0.10;0.10;;;;;;;;;;4148995;28;20501;-39
2021/11/27 06:33:46;;;;;;;0.20;0.20;;;;;;;;;;4166512;28;20096;-40
2021/11/27 06:35:47;;;;;;;0.10;0.10;;;;;;;;;;4166663;28;20054;-37
2021/11/27 06:37:48;;;;;;;0.25;0.15;;;;;;;;;;4165979;28;20065;-41
2021/11/27 06:39:50;;;;;;;0.10;0.10;;;;;;;;;;4166530;28;20057;-41
2021/11/27 06:41:51;;;;;;;0.10;0.10;;;;;;;;;;4166360;28;20108;-40
2021/11/27 06:44:01;;;;;;;0.10;0.10;;;;;;;;;;4166170;28;20543;-40
2021/11/27 06:46:22;;;;;;;0.10;0.10;;;;;;;;;;4172895;28;20107;-38
2021/11/27 06:48:24;;;;;;;0.10;0.10;;;;;;;;;;4182455;28;20059;-40
2021/11/27 06:50:25;;;;;;;0.10;0.10;;;;;;;;;;4183008;28;20061;-40
2021/11/27 06:52:26;;;;;;;0.17;0.10;;;;;;;;;;4182752;28;20106;-39
2021/11/27 06:54:27;;;;;;;0.10;0.10;;;;;;;;;;4182086;28;20075;-40
2021/11/27 06:56:28;;;;;;;0.00;0.00;;;;;;;;;;4182528;28;20053;-37
2021/11/27 06:58:30;;;;;;;0.10;0.10;;;;;;;;;;4182408;28;20069;-39
2021/11/27 07:01:03;;;;;;;0.10;0.10;;;;;;;;;;4164990;28;20053;-41
2021/11/27 07:03:24;;;;;;;0.10;0.10;;;;;;;;;;4182274;28;20543;-40
2021/11/27 07:05:44;;;;;;;;;;;;;;;;;;4165175;28;20057;-40
2021/11/27 07:07:50;;;;;;;0.10;0.10;;;;;;;;;;4164233;28;20377;-39
2021/11/27 07:10:00;;;;;;;0.10;0.10;;;;;;;;;;4182386;28;20561;-39
2021/11/27 07:12:08;;;;;;;0.10;0.10;;;;;;;;;;4164544;28;20057;-41
2021/11/27 07:14:10;;;;;;;0.43;0.10;;;;;;;;;;4164458;28;20057;-39
2021/11/27 07:16:11;;;;;;;0.20;0.20;;;;;;;;;;4182231;28;20052;-41
2021/11/27 07:18:13;;;;;;;0.30;0.10;;;;;;;;;;4182155;28;20059;-39
2021/11/27 07:20:14;;;;;;;0.10;0.10;;;;;;;;;;4182251;28;20067;-39
2021/11/27 07:22:15;;;;;;;0.10;0.10;;;;;;;;;;4181957;28;20057;-38
2021/11/27 07:24:16;;;;;;;0.10;0.10;;;;;;;;;;4181988;28;20060;-40
2021/11/27 07:26:19;;;;;;;0.10;0.10;;;;;;;;;;4182156;28;20242;-39
2021/11/27 07:28:26;;;;;;;0.20;0.10;;;;;;;;;;4180861;28;20053;-39
2021/11/27 07:30:27;;;;;;;0.10;0.10;;;;;;;;;;4182054;28;20119;-40
2021/11/27 07:32:30;;;;;;;0.13;0.10;;;;;;;;;;4180859;28;20048;-42
2021/11/27 07:34:31;;;;;;;0.10;0.10;;;;;;;;;;4181882;28;20451;-37
2021/11/27 07:36:33;;;;;;;0.10;0.10;;;;;;;;;;4182194;28;20049;-36
2021/11/27 07:38:34;;;;;;;0.10;0.08;;;;;;;;;;4181400;28;20049;-39
2021/11/27 07:40:35;;;;;;;0.32;0.10;;;;;;;;;;4164254;28;20053;-38
2021/11/27 07:42:38;;;;;;;0.17;0.10;;;;;;;;;;4164069;28;20064;-38
2021/11/27 07:44:58;;;;;;;0.20;0.20;;;;;;;;;;4181709;28;20060;-41
2021/11/27 07:47:18;;;;;;;0.20;0.10;;;;;;;;;;4181851;28;20497;-39
2021/11/27 07:49:37;;;;;;;0.10;0.10;;;;;;;;;;4181736;28;20493;-36
2021/11/27 07:51:59;;;;;;;0.05;0.05;;;;;;;;;;4140884;28;20053;-38
2021/11/27 07:54:00;;;;;;;0.15;0.10;;;;;;;;;;4180954;28;20057;-38
2021/11/27 07:56:01;;;;;;;0.10;0.10;;;;;;;;;;4181536;28;20400;-39
2021/11/27 07:58:03;;;;;;;0.00;0.00;;;;;;;;;;4180539;28;20056;-40
2021/11/27 08:00:05;;;;;;;0.40;0.10;;;;;;;;;;4181793;28;20048;-40
2021/11/27 08:02:14;;;;;;;;;;;;;;;;;;4182343;28;20098;-42
2021/11/27 08:04:15;;;;;;;0.10;0.10;;;;;;;;;;4181546;28;19924;-42
2021/11/27 08:06:17;;;;;;;0.17;0.10;;;;;;;;;;4181277;28;20508;-37
2021/11/27 08:08:18;;;;;;;0.17;0.10;;;;;;;;;;4180992;28;20076;-41
2021/11/27 08:10:19;;;;;;;0.20;0.10;;;;;;;;;;4181686;28;20061;-41
2021/11/27 08:12:20;;;;;;;0.15;0.10;;;;;;;;;;4181276;28;20053;-40
2021/11/27 08:14:26;;;;;;;0.08;0.08;;;;;;;;;;4163653;28;20057;-40
2021/11/27 08:16:27;;;;;;;0.17;0.10;;;;;;;;;;4181340;28;20389;-39
2021/11/27 08:18:29;;;;;;;0.10;0.10;;;;;;;;;;4181226;28;20064;-40
2021/11/27 08:20:30;;;;;;;0.10;0.10;;;;;;;;;;4163536;28;20058;-40
2021/11/27 08:22:31;;;;;;;0.10;0.10;;;;;;;;;;4180286;28;20049;-39
2021/11/27 08:24:32;;;;;;;0.10;0.10;;;;;;;;;;4163190;28;20053;-40
2021/11/27 08:26:34;;;;;;;0.10;0.10;;;;;;;;;;4181409;28;20053;-41
2021/11/27 08:28:35;;;;;;;0.10;0.10;;;;;;;;;;4181045;28;20110;-37
2021/11/27 08:30:36;;;;;;;0.03;0.03;;;;;;;;;;4163510;28;20068;-39
2021/11/27 08:32:37;;;;;;;0.10;0.10;;;;;;;;;;4181038;28;20053;-39
2021/11/27 08:34:38;;;;;;;0.10;0.10;;;;;;;;;;4181050;28;20493;-41
2021/11/27 08:36:40;;;;;;;0.00;0.00;;;;;;;;;;4181098;28;20057;-40
2021/11/27 08:38:41;;;;;;;0.10;0.10;;;;;;;;;;4180781;28;20064;-39
2021/11/27 08:40:43;;;;;;;0.20;0.03;;;;;;;;;;4181232;28;20064;-37
2021/11/27 08:42:45;;;;;;;0.10;0.10;;;;;;;;;;4181074;28;20481;-41
2021/11/27 08:44:46;;;;;;;0.15;0.15;;;;;;;;;;4180810;28;20056;-38
2021/11/27 08:46:47;;;;;;;0.32;0.10;;;;;;;;;;4181114;28;20067;-37
2021/11/27 08:48:48;;;;;;;1.27;0.15;;;;;;;;;;4180723;28;20069;-40
2021/11/27 08:50:50;;;;;;;0.15;0.15;;;;;;;;;;4180830;28;20114;-40
2021/11/27 08:52:51;;;;;;;0.10;0.10;;;;;;;;;;4180172;28;20045;-40
2021/11/27 08:54:52;;;;;;;0.17;0.17;;;;;;;;;;4180751;28;20087;-39
2021/11/27 08:56:56;;;;;;;0.10;0.10;;;;;;;;;;4181064;28;20057;-38
2021/11/27 08:58:57;;;;;;;0.20;0.10;;;;;;;;;;4180706;28;20057;-40
2021/11/27 09:00:58;;;;;;;0.00;0.00;;;;;;;;;;4180795;28;20351;-38
2021/11/27 09:02:59;;;;;;;0.10;0.00;;;;;;;;;;4180502;28;20057;-40
2021/11/27 09:05:00;;;;;;;0.25;0.20;;;;;;;;;;4180731;28;20048;-39
2021/11/27 09:07:03;;;;;;;0.10;0.10;;;;;;;;;;4180823;28;20095;-39
2021/11/27 09:09:05;;;;;;;0.10;0.03;;;;;;;;;;4179817;28;20057;-40
2021/11/27 09:11:07;;;;;;;0.10;0.10;;;;;;;;;;4180631;28;20110;-40
2021/11/27 09:13:10;;;;;;;0.17;0.10;;;;;;;;;;4180468;28;20056;-39
2021/11/27 09:15:11;;;;;;;0.47;0.20;;;;;;;;;;4180443;28;20456;-39
2021/11/27 09:17:12;;;;;;;0.10;0.10;;;;;;;;;;4180541;28;20103;-39
2021/11/27 09:19:13;;;;;;;0.08;0.08;;;;;;;;;;4172225;28;20057;-40
2021/11/27 09:21:14;;;;;;;0.10;0.10;;;;;;;;;;4164316;28;20061;-38
2021/11/27 09:23:15;;;;;;;0.15;0.10;;;;;;;;;;4163275;28;20486;-41
2021/11/27 09:25:17;;;;;;;0.22;0.15;;;;;;;;;;4164105;28;20061;-37
2021/11/27 09:27:18;;;;;;;0.10;0.08;;;;;;;;;;4146745;28;20061;-37
2021/11/27 09:29:20;;;;;;;0.55;0.10;;;;;;;;;;4164069;28;20065;-38
2021/11/27 09:31:21;;;;;;;0.10;0.08;;;;;;;;;;4163778;28;20088;-37
2021/11/27 09:33:22;;;;;;;0.20;0.10;;;;;;;;;;4163735;28;20053;-36
2021/11/27 09:35:23;;;;;;;0.10;0.10;;;;;;;;;;4164070;28;20058;-39
2021/11/27 09:37:25;;;;;;;0.00;0.00;;;;;;;;;;4163936;28;20057;-39
2021/11/27 09:39:27;;;;;;;0.00;0.00;;;;;;;;;;4164063;28;20069;-40
2021/11/27 09:41:29;;;;;;;0.17;0.10;;;;;;;;;;4164193;28;20077;-41
2021/11/27 09:43:30;;;;;;;0.22;0.10;;;;;;;;;;4163838;28;20107;-40
2021/11/27 09:45:31;;;;;;;0.10;0.10;;;;;;;;;;4163968;28;20490;-41
2021/11/27 09:47:33;;;;;;;0.10;0.00;;;;;;;;;;4163785;28;20482;-37
2021/11/27 09:49:35;;;;;;;0.10;0.10;;;;;;;;;;4163814;28;20061;-40
2021/11/27 09:51:38;;;;;;;0.10;0.10;;;;;;;;;;4164323;28;20130;-35
2021/11/27 09:53:39;;;;;;;0.10;0.10;;;;;;;;;;4163230;28;20375;-40
2021/11/27 09:55:42;;;;;;;0.10;0.08;;;;;;;;;;4163756;28;20057;-37
2021/11/27 09:57:49;;;;;;;0.38;0.20;;;;;;;;;;4164118;28;20049;-37
2021/11/27 09:59:50;;;;;;;0.10;0.03;;;;;;;;;;4164058;28;20053;-39
2021/11/27 10:01:54;;;;;;;0.00;0.00;;;;;;;;;;4163658;28;20100;-41
2021/11/27 10:04:01;;;;;;;0.10;0.10;;;;;;;;;;4163526;28;20525;-40
2021/11/27 10:06:03;;;;;;;0.10;0.10;;;;;;;;;;4163727;28;20057;-37
2021/11/27 10:08:05;;;;;;;0.10;0.10;;;;;;;;;;4163177;28;20058;-41
2021/11/27 10:10:11;;;;;;;0.10;0.10;;;;;;;;;;4163770;28;20391;-38
2021/11/27 10:12:12;;;;;;;0.10;0.10;;;;;;;;;;4163920;28;20110;-39
2021/11/27 10:14:14;;;;;;;0.03;0.03;;;;;;;;;;4163731;28;20068;-38
2021/11/27 10:16:15;;;;;;;0.17;0.17;;;;;;;;;;4163673;28;20053;-41
2021/11/27 10:18:26;;;;;;;0.43;0.03;;;;;;;;;;4163610;28;20061;-41
2021/11/27 10:20:30;;;;;;;0.10;0.10;;;;;;;;;;4163638;28;20057;-39
2021/11/27 10:22:37;;;;;;;0.10;0.10;;;;;;;;;;4165822;28;20057;-41
2021/11/27 10:24:39;;;;;;;0.35;0.20;;;;;;;;;;4166815;28;20065;-38
2021/11/27 10:26:40;;;;;;;0.10;0.10;;;;;;;;;;4166573;28;20108;-40
2021/11/27 10:28:41;;;;;;;0.40;0.10;;;;;;;;;;4166609;28;20058;-42
2021/11/27 10:31:03;;;;;;;0.10;0.10;;;;;;;;;;4166725;28;20060;-40
2021/11/27 10:33:05;;;;;;;0.10;0.10;;;;;;;;;;4166250;28;20540;-37
2021/11/27 10:35:13;;;;;;;0.20;0.20;;;;;;;;;;4166303;28;20399;-35
2021/11/27 10:37:39;;;;;;;0.15;0.15;;;;;;;;;;4166493;28;20559;-39
2021/11/27 10:40:09;;;;;;;0.82;0.20;;;;;;;;;;4166353;28;20054;-40
2021/11/27 10:42:11;;;;;;;0.80;0.20;;;;;;;;;;4166448;28;20058;-41
2021/11/27 10:44:12;;;;;;;0.68;0.17;;;;;;;;;;4166015;28;20131;-38
2021/11/27 10:46:24;;;;;;;0.10;0.10;;;;;;;;;;4186327;28;20112;-41
2021/11/27 10:48:26;;;;;;;0.20;0.10;;;;;;;;;;4165450;28;20123;-40
2021/11/27 10:50:29;;;;;;;0.20;0.10;;;;;;;;;;4181643;28;20156;-41
2021/11/27 10:52:36;;;;;;;0.10;0.10;;;;;;;;;;4180457;28;20056;-41
2021/11/27 10:54:56;;;;;;;0.10;0.10;;;;;;;;;;4182028;28;20099;-41
2021/11/27 10:56:57;;;;;;;0.20;0.20;;;;;;;;;;4182512;28;20089;-38
2021/11/27 10:59:06;;;;;;;0.28;0.10;;;;;;;;;;4182311;28;20057;-40
2021/11/27 11:01:07;;;;;;;0.10;0.10;;;;;;;;;;4181253;28;20056;-39
2021/11/27 11:03:26;;;;;;;0.22;0.10;;;;;;;;;;4182043;28;20053;-42
2021/11/27 11:05:33;;;;;;;0.53;0.10;;;;;;;;;;4182552;28;20072;-40
2021/11/27 11:07:35;;;;;;;0.20;0.10;;;;;;;;;;4182257;28;20438;-39
2021/11/27 11:09:36;;;;;;;0.10;0.10;;;;;;;;;;4182460;28;20052;-40
2021/11/27 11:11:37;;;;;;;0.22;0.22;;;;;;;;;;4182569;28;20056;-40
2021/11/27 11:13:38;;;;;;;0.10;0.10;;;;;;;;;;4164408;28;20053;-40
2021/11/27 11:15:44;;;;;;;0.10;0.10;;;;;;;;;;4182525;28;20053;-38
2021/11/27 11:17:48;;;;;;;0.20;0.10;;;;;;;;;;4182396;28;20166;-39
2021/11/27 11:19:49;;;;;;;0.47;0.10;;;;;;;;;;4182276;28;20428;-40
2021/11/27 11:22:10;;;;;;;0.10;0.10;;;;;;;;;;4181989;28;20056;-40
2021/11/27 11:24:23;;;;;;;0.20;0.15;;;;;;;;;;4181525;28;20379;-41
2021/11/27 11:26:27;;;;;;;0.10;0.03;;;;;;;;;;4182065;28;20053;-38
2021/11/27 11:28:31;;;;;;;0.08;0.00;;;;;;;;;;4182023;28;20219;-35
2021/11/27 11:30:37;;;;;;;0.10;0.10;;;;;;;;;;4182224;28;20061;-38
2021/11/27 11:32:39;;;;;;;0.10;0.10;;;;;;;;;;4181655;28;20481;-37
2021/11/27 11:34:40;;;;;;;0.10;0.08;;;;;;;;;;4182077;28;20061;-36
2021/11/27 11:36:41;;;;;;;0.52;0.10;;;;;;;;;;4182202;28;20103;-40
2021/11/27 11:38:45;;;;;;;0.10;0.10;;;;;;;;;;4181295;28;20493;-39
2021/11/27 11:40:47;;;;;;;0.10;0.10;;;;;;;;;;4182152;28;20061;-38
2021/11/27 11:42:48;;;;;;;0.77;0.10;;;;;;;;;;4181926;28;20049;-36
2021/11/27 11:44:50;;;;;;;0.10;0.10;;;;;;;;;;4163966;28;20173;-37
2021/11/27 11:46:51;;;;;;;0.10;0.10;;;;;;;;;;4181818;28;20094;-40
2021/11/27 11:48:56;;;;;;;0.00;0.00;;;;;;;;;;4181928;28;20053;-40
2021/11/27 11:51:22;;;;;;;0.10;0.10;;;;;;;;;;4163923;28;20116;-40
2021/11/27 11:53:35;;;;;;;0.00;0.00;;;;;;;;;;4163643;28;20075;-42
2021/11/27 11:55:54;;;;;;;0.10;0.10;;;;;;;;;;4181726;28;20378;-42
2021/11/27 11:57:57;;;;;;;0.10;0.10;;;;;;;;;;4181472;28;20061;-38
2021/11/27 12:00:19;;;;;;;0.10;0.10;;;;;;;;;;4181742;28;20119;-40
2021/11/27 12:02:27;;;;;;;0.10;0.10;;;;;;;;;;4181454;28;20392;-43
2021/11/27 12:04:29;;;;;;;0.10;0.10;;;;;;;;;;4164055;28;20061;-41
2021/11/27 12:06:30;;;;;;;0.65;0.20;;;;;;;;;;4181673;28;20065;-40
2021/11/27 12:08:52;;;;;;;0.20;0.10;;;;;;;;;;4180778;28;20057;-39
2021/11/27 12:10:56;;;;;;;1.85;0.17;;;;;;;;;;4181680;28;20061;-39
2021/11/27 12:13:28;;;;;;;0.00;0.00;;;;;;;;;;4163633;28;20054;-40
2021/11/27 12:15:29;;;;;;;0.10;0.10;;;;;;;;;;4180443;28;20057;-42
2021/11/27 12:17:31;;;;;;;0.10;0.10;;;;;;;;;;4181223;28;20110;-43
2021/11/27 12:19:41;;;;;;;0.35;0.10;;;;;;;;;;4181094;28;20118;-41
2021/11/27 12:21:42;;;;;;;0.10;0.10;;;;;;;;;;4181365;28;20057;-41
2021/11/27 12:23:45;;;;;;;0.00;0.00;;;;;;;;;;4180523;28;20493;-41
2021/11/27 12:26:06;;;;;;;0.10;0.10;;;;;;;;;;4181283;28;20430;-41